Columbia, SC (29201)

11:27 PM EST on March 05, 2015 (GMT -0500)
Near Downtown | Change Station
CLOSE
Current Station
Personal Weather Station
Location: Columbia, SC
Elevation: 260 ft
Nearby Weather Stations
Active Advisory: Lake Wind Advisory

Elev 260 ft 34.02 °N, 81.07 °W | Updated 23 minutes ago

Overcast
Overcast
41.0 °F
Feels Like 41 °F
N
1.0
Wind Variable Wind from WNW
Gusts 6.0 mph

Today
High -- | Low -- °F
--% Chance of Precip.
Yesterday
High -- | Low -- °F
Precip. -- in
6:48 AM 6:23 PM
Full, 100% visible
Pressure 30.30 in
Visibility 10.0 miles
Clouds Mostly Cloudy 1500 ft
Overcast 2200 ft
Windchill 41 °F
Dew Point 39 °F
Humidity 91%
Rainfall in
Snow Depth Not available.
UV 0 out of 12
Pollen 8.10 out of 12
Air Quality Not available.
Flu Activity Not available.
METAR KCUB 060353Z AUTO 04007G17KT 010V080 10SM BKN015 OVC022 06/03 A3030 RMK AO2 SLP259 T00560028

More Conditions Fewer Conditions

Pressure 30.30 in
Visibility 10.0 miles
Clouds Mostly Cloudy 1500 ft
Overcast 2200 ft
Windchill 41 °F
Dew Point 39 °F
Humidity 91%
Rainfall in
Snow Depth Not available.
UV 0 out of 12
Pollen 8.10 out of 12
Air Quality Not available.
Flu Activity Not available.
METAR KCUB 060353Z AUTO 04007G17KT 010V080 10SM BKN015 OVC022 06/03 A3030 RMK AO2 SLP259 T00560028

More Conditions Fewer Conditions

10-Day Weather Forecast

Almanac

Astronomy

Mar. 05, 2015 Rise Set
Actual Time
Civil Twilight
Nautical Twilight
Astronomical Twilight
Moon
Length of Visible Light
Length of Day
Tomorrow will be .
, % of the Moon is Illuminated

Today's Extremes

State Highs State Lows

Community

WunderPhotos

Upload Photos

1,803,176 photos uploaded!

WunderBlogs® & News

Nearby

Air Quality

  Air Quality AQ Index Pollutant
Not available.

Snow Depth

Station Depth Elevation

Earthquake Activity

City Distance Mag. Time & Date
Minimum magnitude displayed is 2.5.

Coastal Water Temperatures

Place Temperature

Nearby Weather Stations

Lake Wind Advisory
Statement as of 5:06 PM EST on March 05, 2015

... Lake Wind Advisory remains in effect until 4 am EST Friday...

* timing... through 4 am Friday morning.

* Winds... gusts around 30 knots decreasing slightly to around 25
knots after midnight.

* Impacts... strong gusty winds will make area lakes dangerous.

Precautionary/preparedness actions...

A lake Wind Advisory indicates that winds will cause rough chop
on area lakes. Small boats and personal watercraft will be
especially prone to capsizing.